createdAt,value
2019-01-23T00:02:13.037Z,98851.52
2019-01-23T00:04:41.373Z,98847.42
2019-01-23T00:07:09.804Z,98846.45
2019-01-23T00:09:38.206Z,98839.70
2019-01-23T00:12:06.529Z,98839.55
2019-01-23T00:14:34.887Z,98840.33
2019-01-23T00:17:03.817Z,98838.34
2019-01-23T00:19:32.182Z,98832.27
2019-01-23T00:22:00.552Z,98831.44
2019-01-23T00:24:28.865Z,98831.59
2019-01-23T00:26:57.240Z,98830.95
2019-01-23T00:29:25.586Z,98831.19
2019-01-23T00:31:53.952Z,98825.25
2019-01-23T00:34:22.305Z,98826.91
2019-01-23T00:36:50.663Z,98818.02
2019-01-23T00:39:19.049Z,98813.77
2019-01-23T00:41:47.426Z,98810.81
2019-01-23T00:44:15.770Z,98814.27
2019-01-23T00:46:44.180Z,98810.23
2019-01-23T00:49:12.769Z,98807.13
2019-01-23T00:51:41.123Z,98805.36
2019-01-23T00:54:10.284Z,98804.43
2019-01-23T00:56:38.614Z,98799.73
2019-01-23T00:59:06.937Z,98804.63
2019-01-23T01:01:35.499Z,98801.23
2019-01-23T01:04:04.215Z,98794.84
2019-01-23T01:06:32.687Z,98785.35
2019-01-23T01:09:01.073Z,98790.08
2019-01-23T01:11:29.442Z,98795.19
2019-01-23T01:13:57.766Z,98775.97
2019-01-23T01:16:26.146Z,98787.13
2019-01-23T01:18:54.487Z,98775.79
2019-01-23T01:21:22.905Z,98773.34
2019-01-23T01:23:51.220Z,98766.94
2019-01-23T01:26:19.577Z,98768.16
2019-01-23T01:28:47.909Z,98769.66
2019-01-23T01:31:16.349Z,98764.98
2019-01-23T01:33:44.684Z,98764.67
2019-01-23T01:36:13.182Z,98762.93
2019-01-23T01:38:41.703Z,98760.34
2019-01-23T01:41:10.444Z,98760.16
2019-01-23T01:43:38.768Z,98760.21
2019-01-23T01:46:07.097Z,98757.59
2019-01-23T01:48:35.531Z,98750.92
2019-01-23T01:51:03.952Z,98750.58
2019-01-23T01:53:32.292Z,98748.98
2019-01-23T01:56:00.629Z,98739.06
2019-01-23T01:58:28.978Z,98746.13
2019-01-23T02:00:57.296Z,98745.13
2019-01-23T02:03:25.669Z,98739.19
2019-01-23T02:05:53.990Z,98737.75
2019-01-23T02:08:22.356Z,98736.77
2019-01-23T02:10:50.741Z,98729.36
2019-01-23T02:13:19.172Z,98731.49
2019-01-23T02:15:47.522Z,98725.41
2019-01-23T02:18:15.890Z,98724.61
2019-01-23T02:20:44.340Z,98719.18
2019-01-23T02:23:12.796Z,98728.73
2019-01-23T02:25:41.263Z,98720.85
2019-01-23T02:28:10.135Z,98721.89
2019-01-23T02:30:38.470Z,98710.34
2019-01-23T02:33:06.824Z,98710.67
2019-01-23T02:35:35.157Z,98708.70
2019-01-23T02:38:03.573Z,98700.87
2019-01-23T02:40:31.902Z,98699.81
2019-01-23T02:43:00.231Z,98693.11
2019-01-23T02:45:28.557Z,98692.50
2019-01-23T02:47:56.898Z,98684.28
2019-01-23T02:50:25.282Z,98683.30
2019-01-23T02:52:53.645Z,98684.89
2019-01-23T02:55:22.031Z,98672.22
2019-01-23T02:57:50.496Z,98676.01
2019-01-23T03:00:19.237Z,98672.56
2019-01-23T03:02:47.984Z,98674.05
2019-01-23T03:05:17.085Z,98667.48
2019-01-23T03:07:45.444Z,98668.44
2019-01-23T03:10:17.525Z,98669.91
2019-01-23T03:12:46.006Z,98667.13
2019-01-23T03:15:15.853Z,98663.20
2019-01-23T03:17:44.181Z,98658.02
2019-01-23T03:20:15.242Z,98661.25
2019-01-23T03:22:43.722Z,98651.72
2019-01-23T03:25:14.491Z,98659.59
2019-01-23T03:27:42.894Z,98649.06
2019-01-23T03:30:14.128Z,98647.11
2019-01-23T03:32:42.546Z,98647.11
2019-01-23T03:35:11.362Z,98648.25
2019-01-23T03:37:40.103Z,98640.54
2019-01-23T03:40:12.073Z,98646.95
2019-01-23T03:42:40.441Z,98646.80
2019-01-23T03:45:11.234Z,98642.61
2019-01-23T03:47:39.639Z,98637.34
2019-01-23T03:50:10.441Z,98636.20
2019-01-23T03:52:38.824Z,98637.33
2019-01-23T03:55:08.138Z,98637.31
2019-01-23T03:57:36.470Z,98639.96
2019-01-23T04:00:07.363Z,98639.98
2019-01-23T04:02:35.707Z,98641.43
2019-01-23T04:05:07.088Z,98633.88
2019-01-23T04:07:35.430Z,98634.55
2019-01-23T04:10:07.826Z,98626.00
2019-01-23T04:12:36.242Z,98622.28
2019-01-23T04:15:05.893Z,98624.00
2019-01-23T04:17:34.237Z,98626.73
2019-01-23T04:20:03.924Z,98625.68
2019-01-23T04:22:32.673Z,98627.53
2019-01-23T04:25:01.014Z,98627.96
2019-01-23T04:27:29.356Z,98621.22
2019-01-23T04:29:57.692Z,98619.59
2019-01-23T04:32:26.029Z,98616.14
2019-01-23T04:34:54.392Z,98620.42
2019-01-23T04:37:22.775Z,98607.46
2019-01-23T04:39:51.765Z,98601.86
2019-01-23T04:42:20.229Z,98605.55
2019-01-23T04:44:48.605Z,98602.31
2019-01-23T04:47:17.031Z,98600.19
2019-01-23T04:49:45.378Z,98603.63
2019-01-23T04:52:15.818Z,98599.68
2019-01-23T04:54:44.151Z,98599.45
2019-01-23T04:57:12.746Z,98597.16
2019-01-23T04:59:46.808Z,98598.95
2019-01-23T05:02:12.090Z,98595.51
2019-01-23T05:04:40.418Z,98593.55
2019-01-23T05:07:08.747Z,98592.57
2019-01-23T05:09:37.089Z,98589.27
2019-01-23T05:12:05.425Z,98588.83
2019-01-23T05:14:33.758Z,98588.96
2019-01-23T05:17:02.090Z,98581.05
2019-01-23T05:19:30.443Z,98579.36
2019-01-23T05:21:58.805Z,98584.20
2019-01-23T05:24:27.141Z,98584.77
2019-01-23T05:26:55.520Z,98579.17
2019-01-23T05:29:23.838Z,98577.64
2019-01-23T05:31:52.169Z,98573.77
2019-01-23T05:34:20.507Z,98577.97
2019-01-23T05:36:48.866Z,98574.19
2019-01-23T05:39:17.199Z,98571.83
2019-01-23T05:41:45.603Z,98567.94
2019-01-23T05:44:14.153Z,98567.73
2019-01-23T05:46:42.505Z,98566.42
2019-01-23T05:49:11.337Z,98565.82
2019-01-23T05:51:39.672Z,98566.80
2019-01-23T05:54:08.017Z,98573.59
2019-01-23T05:56:36.370Z,98565.75
2019-01-23T05:59:04.846Z,98562.69
2019-01-23T06:01:33.256Z,98560.50
2019-01-23T06:04:01.548Z,98554.25
2019-01-23T06:06:29.908Z,98559.44
2019-01-23T06:08:58.262Z,98561.75
2019-01-23T06:11:26.625Z,98561.42
2019-01-23T06:13:55.029Z,98562.56
2019-01-23T06:16:23.344Z,98554.17
2019-01-23T06:18:51.816Z,98559.70
2019-01-23T06:21:20.214Z,98555.33
2019-01-23T06:23:49.222Z,98557.45
2019-01-23T06:26:17.548Z,98556.73
2019-01-23T06:29:12.785Z,98555.25
2019-01-23T06:31:41.220Z,98556.25
2019-01-23T06:34:09.703Z,98565.50
2019-01-23T06:36:38.025Z,98565.33
2019-01-23T06:39:07.402Z,98565.41
2019-01-23T06:41:35.804Z,98567.72
2019-01-23T06:44:04.159Z,98560.41
2019-01-23T06:46:32.523Z,98558.20
2019-01-23T06:49:00.837Z,98555.77
2019-01-23T06:51:29.181Z,98559.09
2019-01-23T06:53:57.509Z,98558.39
2019-01-23T06:56:25.896Z,98552.14
2019-01-23T06:58:54.254Z,98555.52
2019-01-23T07:01:22.677Z,98557.73
2019-01-23T07:03:51.025Z,98554.12
2019-01-23T07:06:19.383Z,98556.73
2019-01-23T07:08:47.717Z,98557.70
2019-01-23T07:11:16.055Z,98559.28
2019-01-23T07:13:44.432Z,98551.97
2019-01-23T07:16:12.817Z,98549.76
2019-01-23T07:18:41.141Z,98550.56
2019-01-23T07:21:09.599Z,98544.73
2019-01-23T07:23:37.961Z,98550.02
2019-01-23T07:26:06.395Z,98548.52
2019-01-23T07:28:34.716Z,98542.02
2019-01-23T07:31:03.048Z,98548.38
2019-01-23T07:33:31.778Z,98548.60
2019-01-23T07:36:00.174Z,98544.11
2019-01-23T07:38:28.506Z,98548.52
2019-01-23T07:40:56.848Z,98542.22
2019-01-23T07:43:25.202Z,98538.78
2019-01-23T07:45:53.532Z,98536.45
2019-01-23T07:48:21.888Z,98533.49
2019-01-23T07:50:50.230Z,98538.84
2019-01-23T07:53:18.647Z,98536.77
2019-01-23T07:55:47.125Z,98540.08
2019-01-23T07:58:15.588Z,98537.78
2019-01-23T08:00:44.043Z,98534.41
2019-01-23T08:03:12.475Z,98533.58
2019-01-23T08:05:42.042Z,98534.56
2019-01-23T08:08:11.057Z,98528.97
2019-01-23T08:10:40.041Z,98536.70
2019-01-23T08:13:08.674Z,98534.41
2019-01-23T08:15:37.105Z,98528.78
2019-01-23T08:18:06.094Z,98525.44
2019-01-23T08:20:34.457Z,98524.67
2019-01-23T08:23:02.863Z,98525.66
2019-01-23T08:25:31.241Z,98526.03
2019-01-23T08:27:59.906Z,98532.60
2019-01-23T08:30:28.467Z,98535.39
2019-01-23T08:32:56.880Z,98531.56
2019-01-23T08:35:25.687Z,98537.53
2019-01-23T08:37:54.194Z,98542.19
2019-01-23T08:40:22.765Z,98535.30
2019-01-23T08:42:51.308Z,98533.27
2019-01-23T08:45:19.745Z,98541.48
2019-01-23T08:47:48.169Z,98535.12
2019-01-23T08:50:20.738Z,98539.52
2019-01-23T08:52:49.596Z,98531.34
2019-01-23T08:55:18.769Z,98530.28
2019-01-23T08:57:47.173Z,98532.86
2019-01-23T09:00:17.364Z,98532.21
2019-01-23T09:02:45.969Z,98532.17
2019-01-23T09:05:14.507Z,98536.66
2019-01-23T09:07:42.933Z,98535.26
2019-01-23T09:10:16.683Z,98532.42
2019-01-23T09:12:45.055Z,98532.09
2019-01-23T09:15:15.330Z,98534.56
2019-01-23T09:17:43.800Z,98535.13
2019-01-23T09:20:13.958Z,98534.60
2019-01-23T09:22:42.375Z,98535.38
2019-01-23T09:25:14.244Z,98538.83
2019-01-23T09:27:42.716Z,98549.27
2019-01-23T09:30:16.012Z,98541.79
2019-01-23T09:32:48.899Z,98541.96
2019-01-23T09:35:20.735Z,98547.62
2019-01-23T09:37:55.484Z,98547.34
2019-01-23T09:40:29.445Z,98540.59
2019-01-23T09:43:02.334Z,98543.10
2019-01-23T09:45:37.257Z,98545.63
2019-01-23T09:48:10.940Z,98549.53
2019-01-23T09:50:47.677Z,98549.41
2019-01-23T09:53:18.603Z,98547.93
2019-01-23T09:55:47.015Z,98548.44
2019-01-23T09:58:15.349Z,98548.91
2019-01-23T10:00:43.688Z,98546.22
2019-01-23T10:03:12.037Z,98553.20
2019-01-23T10:05:40.452Z,98555.48
2019-01-23T10:08:09.230Z,98552.75
2019-01-23T10:10:37.782Z,98546.22
2019-01-23T10:13:06.345Z,98546.72
2019-01-23T10:15:39.306Z,98543.34
2019-01-23T10:18:07.936Z,98540.48
2019-01-23T10:20:36.338Z,98549.39
2019-01-23T10:23:04.831Z,98548.11
2019-01-23T10:25:33.257Z,98547.66
2019-01-23T10:28:01.583Z,98546.34
2019-01-23T10:30:29.975Z,98547.45
2019-01-23T10:32:58.400Z,98546.46
2019-01-23T10:35:26.817Z,98540.33
2019-01-23T10:37:55.178Z,98541.42
2019-01-23T10:40:23.662Z,98530.12
2019-01-23T10:42:52.165Z,98539.16
2019-01-23T10:45:20.626Z,98534.31
2019-01-23T10:47:55.898Z,98533.53
2019-01-23T10:50:19.660Z,98542.97
2019-01-23T10:52:48.081Z,98533.27
2019-01-23T10:55:16.399Z,98531.89
2019-01-23T10:57:44.956Z,98534.73
2019-01-23T11:00:17.546Z,98529.10
2019-01-23T11:02:46.035Z,98528.55
2019-01-23T11:05:18.133Z,98526.91
2019-01-23T11:07:46.569Z,98522.44
2019-01-23T11:10:17.239Z,98531.15
2019-01-23T11:12:45.600Z,98524.41
2019-01-23T11:15:14.352Z,98527.36
2019-01-23T11:17:42.925Z,98528.84
2019-01-23T11:20:14.097Z,98531.77
2019-01-23T11:22:42.579Z,98534.84
2019-01-23T11:25:12.087Z,98533.65
2019-01-23T11:27:40.604Z,98527.98
2019-01-23T11:30:12.722Z,98526.02
2019-01-23T11:32:41.171Z,98531.59
2019-01-23T11:35:09.991Z,98526.55
2019-01-23T11:37:38.348Z,98524.70
2019-01-23T11:40:13.250Z,98518.75
2019-01-23T11:42:41.697Z,98516.32
2019-01-23T11:45:11.822Z,98524.37
2019-01-23T11:47:40.483Z,98517.53
2019-01-23T11:50:12.949Z,98520.83
2019-01-23T11:52:41.334Z,98518.19
2019-01-23T11:55:10.197Z,98517.89
2019-01-23T11:57:38.533Z,98524.53
2019-01-23T12:00:11.368Z,98524.08
2019-01-23T12:02:39.719Z,98527.20
2019-01-23T12:05:11.054Z,98522.14
2019-01-23T12:07:39.528Z,98520.75
2019-01-23T12:10:12.080Z,98535.78
2019-01-23T12:12:40.561Z,98531.78
2019-01-23T12:15:10.485Z,98530.69
2019-01-23T12:17:39.596Z,98532.21
2019-01-23T12:20:09.842Z,98527.95
2019-01-23T12:22:38.436Z,98524.77
2019-01-23T12:25:09.859Z,98528.22
2019-01-23T12:27:38.445Z,98531.77
2019-01-23T12:30:09.407Z,98531.44
2019-01-23T12:32:37.734Z,98535.01
2019-01-23T12:35:07.537Z,98529.01
2019-01-23T12:37:35.942Z,98537.23
2019-01-23T12:40:09.148Z,98533.78
2019-01-23T12:42:37.558Z,98533.85
2019-01-23T12:45:09.941Z,98532.17
2019-01-23T12:47:38.307Z,98538.89
2019-01-23T12:50:10.533Z,98540.66
2019-01-23T12:52:38.867Z,98533.63
2019-01-23T12:55:09.339Z,98536.33
2019-01-23T12:57:37.737Z,98533.25
2019-01-23T13:00:09.150Z,98530.85
2019-01-23T13:02:37.465Z,98535.08
2019-01-23T13:05:09.309Z,98536.38
2019-01-23T13:07:37.702Z,98540.48
2019-01-23T13:10:11.181Z,98536.20
2019-01-23T13:12:39.579Z,98546.72
2019-01-23T13:15:11.749Z,98536.82
2019-01-23T13:17:41.088Z,98539.83
2019-01-23T13:20:13.981Z,98541.09
2019-01-23T13:22:42.399Z,98534.36
2019-01-23T13:25:14.680Z,98540.97
2019-01-23T13:27:43.261Z,98539.73
2019-01-23T13:30:14.347Z,98540.42
2019-01-23T13:32:42.837Z,98545.92
2019-01-23T13:35:15.184Z,98537.84
2019-01-23T13:37:43.593Z,98539.03
2019-01-23T13:40:17.836Z,98534.73
2019-01-23T13:42:46.362Z,98539.92
2019-01-23T13:45:14.807Z,98536.57
2019-01-23T13:47:43.983Z,98534.07
2019-01-23T13:50:13.493Z,98533.65
2019-01-23T13:52:43.394Z,98542.44
2019-01-23T13:55:15.563Z,98539.13
2019-01-23T13:57:44.045Z,98535.02
2019-01-23T14:00:18.404Z,98532.88
2019-01-23T14:02:46.882Z,98538.66
2019-01-23T14:05:15.458Z,98538.20
2019-01-23T14:07:43.828Z,98543.92
2019-01-23T14:10:14.674Z,98543.67
2019-01-23T14:12:44.799Z,98544.30
2019-01-23T14:15:20.672Z,98548.70
2019-01-23T14:17:49.089Z,98548.73
2019-01-23T14:20:17.633Z,98548.08
2019-01-23T14:22:46.089Z,98551.77
2019-01-23T14:25:16.298Z,98556.83
2019-01-23T14:27:45.085Z,98549.83
2019-01-23T14:30:18.122Z,98552.42
2019-01-23T14:32:46.559Z,98559.03
2019-01-23T14:35:15.135Z,98560.39
2019-01-23T14:37:43.557Z,98561.96
2019-01-23T14:40:12.241Z,98562.95
2019-01-23T14:42:40.672Z,98556.83
2019-01-23T14:45:11.525Z,98559.98
2019-01-23T14:47:39.861Z,98566.95
2019-01-23T14:50:11.451Z,98571.66
2019-01-23T14:52:40.231Z,98568.11
2019-01-23T14:55:09.698Z,98575.84
2019-01-23T14:57:38.165Z,98580.55
2019-01-23T15:00:10.915Z,98589.30
2019-01-23T15:02:39.262Z,98582.77
2019-01-23T15:05:08.226Z,98588.77
2019-01-23T15:07:36.553Z,98590.04
2019-01-23T15:10:09.267Z,98603.59
2019-01-23T15:12:37.573Z,98599.64
2019-01-23T15:15:07.763Z,98588.85
2019-01-23T15:17:36.097Z,98597.48
2019-01-23T15:20:10.223Z,98596.49
2019-01-23T15:22:39.458Z,98598.34
2019-01-23T15:25:09.756Z,98609.89
2019-01-23T15:27:38.094Z,98608.87
2019-01-23T15:30:10.392Z,98615.77
2019-01-23T15:32:38.754Z,98626.38
2019-01-23T15:35:10.222Z,98625.62
2019-01-23T15:37:38.615Z,98629.01
2019-01-23T15:40:11.419Z,98624.45
2019-01-23T15:42:39.779Z,98627.84
2019-01-23T15:45:10.100Z,98632.45
2019-01-23T15:47:38.576Z,98635.63
2019-01-23T15:50:10.258Z,98641.05
2019-01-23T15:52:38.619Z,98644.79
2019-01-23T15:55:10.675Z,98644.95
2019-01-23T15:57:39.131Z,98652.41
2019-01-23T16:00:14.299Z,98650.86
2019-01-23T16:02:42.711Z,98651.91
2019-01-23T16:05:12.398Z,98653.77
2019-01-23T16:07:40.831Z,98653.78
2019-01-23T16:10:12.750Z,98662.16
2019-01-23T16:12:41.111Z,98665.88
2019-01-23T16:15:10.902Z,98669.17
2019-01-23T16:17:39.325Z,98667.08
2019-01-23T16:20:10.561Z,98674.92
2019-01-23T16:22:39.322Z,98674.31
2019-01-23T16:25:11.694Z,98675.96
2019-01-23T16:27:40.113Z,98678.60
2019-01-23T16:30:13.934Z,98672.91
2019-01-23T16:32:42.282Z,98675.32
2019-01-23T16:35:10.742Z,98673.12
2019-01-23T16:37:39.093Z,98677.20
2019-01-23T16:40:08.966Z,98677.48
2019-01-23T16:42:37.792Z,98683.32
2019-01-23T16:45:10.023Z,98679.12
2019-01-23T16:47:38.992Z,98688.24
2019-01-23T16:50:12.412Z,98688.07
2019-01-23T16:52:41.023Z,98694.05
2019-01-23T16:55:10.934Z,98696.41
2019-01-23T16:57:39.390Z,98705.28
2019-01-23T17:00:11.848Z,98704.63
2019-01-23T17:02:40.263Z,98707.53
2019-01-23T17:05:13.866Z,98710.00
2019-01-23T17:07:42.339Z,98714.27
2019-01-23T17:10:15.213Z,98709.95
2019-01-23T17:12:44.056Z,98710.06
2019-01-23T17:15:14.365Z,98713.80
2019-01-23T17:17:42.804Z,98719.40
2019-01-23T17:20:15.895Z,98717.84
2019-01-23T17:22:44.306Z,98724.42
2019-01-23T17:25:14.288Z,98725.77
2019-01-23T17:27:42.785Z,98731.69
2019-01-23T17:30:15.604Z,98736.25
2019-01-23T17:32:45.755Z,98729.69
2019-01-23T17:35:18.234Z,98736.60
2019-01-23T17:37:46.983Z,98736.98
2019-01-23T17:40:18.818Z,98735.23
2019-01-23T17:42:47.537Z,98740.72
2019-01-23T17:45:20.381Z,98749.05
2019-01-23T17:47:49.217Z,98747.91
2019-01-23T17:50:20.388Z,98751.91
2019-01-23T17:52:48.918Z,98757.77
2019-01-23T17:55:23.225Z,98762.73
2019-01-23T17:57:51.818Z,98764.27
2019-01-23T18:00:27.298Z,98767.38
2019-01-23T18:02:57.055Z,98770.50
2019-01-23T18:05:26.000Z,98779.34
2019-01-23T18:07:55.489Z,98778.20
2019-01-23T18:10:24.380Z,98781.48
2019-01-23T18:12:53.151Z,98786.02
2019-01-23T18:15:24.391Z,98785.66
2019-01-23T18:17:54.542Z,98787.23
2019-01-23T18:20:25.838Z,98782.88
2019-01-23T18:22:54.245Z,98787.64
2019-01-23T18:25:23.882Z,98799.67
2019-01-23T18:27:52.680Z,98793.90
2019-01-23T18:30:23.493Z,98802.05
2019-01-23T18:32:59.664Z,98805.17
2019-01-23T18:35:30.460Z,98806.81
2019-01-23T18:38:03.377Z,98804.66
2019-01-23T18:40:37.089Z,98803.72
2019-01-23T18:43:10.109Z,98814.22
2019-01-23T18:45:42.613Z,98812.39
2019-01-23T18:48:15.869Z,98820.45
2019-01-23T18:50:49.569Z,98820.28
2019-01-23T18:53:18.098Z,98826.08
2019-01-23T18:55:46.556Z,98820.55
2019-01-23T18:58:15.087Z,98826.55
2019-01-23T19:00:43.574Z,98834.10
2019-01-23T19:03:12.144Z,98828.29
2019-01-23T19:05:40.559Z,98832.62
2019-01-23T19:08:09.593Z,98835.66
2019-01-23T19:10:37.955Z,98838.55
2019-01-23T19:13:07.946Z,98840.45
2019-01-23T19:15:36.362Z,98839.46
2019-01-23T19:18:05.024Z,98836.97
2019-01-23T19:20:33.447Z,98845.06
2019-01-23T19:23:01.758Z,98834.77
2019-01-23T19:25:30.256Z,98836.73
2019-01-23T19:27:58.625Z,98843.05
2019-01-23T19:30:27.041Z,98839.28
2019-01-23T19:32:55.400Z,98843.28
2019-01-23T19:35:23.888Z,98844.63
2019-01-23T19:37:52.250Z,98851.43
2019-01-23T19:40:20.591Z,98846.42
2019-01-23T19:42:48.969Z,98847.42
2019-01-23T19:45:19.913Z,98850.31
2019-01-23T19:47:48.328Z,98839.85
2019-01-23T19:50:16.915Z,98851.92
2019-01-23T19:52:45.381Z,98853.30
2019-01-23T19:55:16.224Z,98854.21
2019-01-23T19:57:44.796Z,98853.27
2019-01-23T20:00:17.414Z,98855.05
2019-01-23T20:02:45.810Z,98856.44
2019-01-23T20:05:17.255Z,98867.77
2019-01-23T20:07:45.608Z,98870.64
2019-01-23T20:10:17.227Z,98877.36
2019-01-23T20:12:46.084Z,98878.34
2019-01-23T20:15:17.473Z,98878.59
2019-01-23T20:17:45.862Z,98879.13
2019-01-23T20:20:15.577Z,98877.42
2019-01-23T20:22:44.263Z,98878.84
2019-01-23T20:25:14.992Z,98879.16
2019-01-23T20:27:43.526Z,98878.02
2019-01-23T20:30:17.370Z,98882.69
2019-01-23T20:32:46.692Z,98882.63
2019-01-23T20:35:15.305Z,98889.67
2019-01-23T20:37:43.902Z,98890.78
2019-01-23T20:40:13.640Z,98893.03
2019-01-23T20:42:42.448Z,98898.00
2019-01-23T20:45:15.120Z,98900.63
2019-01-23T20:47:43.445Z,98913.77
2019-01-23T20:50:18.897Z,98911.63
2019-01-23T20:52:47.445Z,98902.19
2019-01-23T20:55:15.947Z,98905.23
2019-01-23T20:57:44.411Z,98915.78
2019-01-23T21:00:18.291Z,98911.75
2019-01-23T21:02:47.001Z,98909.95
2019-01-23T21:05:15.710Z,98915.39
2019-01-23T21:07:44.516Z,98916.34
2019-01-23T21:10:16.008Z,98917.02
2019-01-23T21:12:44.531Z,98921.73
2019-01-23T21:15:15.993Z,98917.06
2019-01-23T21:17:44.409Z,98921.97
2019-01-23T21:20:13.276Z,98924.57
2019-01-23T21:22:41.614Z,98925.55
2019-01-23T21:25:12.403Z,98929.03
2019-01-23T21:27:42.064Z,98930.81
2019-01-23T21:30:15.827Z,98929.67
2019-01-23T21:32:44.188Z,98934.32
2019-01-23T21:35:13.771Z,98931.23
2019-01-23T21:37:42.262Z,98929.03
2019-01-23T21:40:14.877Z,98933.67
2019-01-23T21:42:43.239Z,98937.38
2019-01-23T21:45:13.486Z,98939.61
2019-01-23T21:47:42.317Z,98947.78
2019-01-23T21:50:15.181Z,98949.52
2019-01-23T21:52:44.336Z,98946.61
2019-01-23T21:55:16.277Z,98952.62
2019-01-23T21:57:44.970Z,98957.44
2019-01-23T22:00:16.263Z,98955.95
2019-01-23T22:02:44.621Z,98959.13
2019-01-23T22:05:14.457Z,98960.05
2019-01-23T22:07:44.028Z,98959.13
2019-01-23T22:10:15.470Z,98967.08
2019-01-23T22:12:43.972Z,98968.24
2019-01-23T22:15:15.687Z,98970.59
2019-01-23T22:17:44.682Z,98966.12
2019-01-23T22:20:16.854Z,98972.29
2019-01-23T22:22:45.437Z,98975.73
2019-01-23T22:25:16.584Z,98977.94
2019-01-23T22:27:44.974Z,98979.72
2019-01-23T22:30:17.340Z,98978.03
2019-01-23T22:32:48.720Z,98977.33
2019-01-23T22:35:17.483Z,98984.73
2019-01-23T22:37:46.037Z,98997.52
2019-01-23T22:40:17.341Z,98992.78
2019-01-23T22:42:45.766Z,98999.08
2019-01-23T22:45:17.180Z,98996.02
2019-01-23T22:47:45.747Z,99003.02
2019-01-23T22:50:16.740Z,99005.94
2019-01-23T22:52:45.337Z,98999.66
2019-01-23T22:55:14.507Z,99006.61
2019-01-23T22:57:42.919Z,99006.91
2019-01-23T23:00:17.557Z,99005.01
2019-01-23T23:02:46.107Z,99008.31
2019-01-23T23:05:14.906Z,99009.54
2019-01-23T23:07:43.331Z,99011.53
2019-01-23T23:10:12.397Z,99014.50
2019-01-23T23:12:40.808Z,99026.20
2019-01-23T23:15:11.308Z,99022.70
2019-01-23T23:17:39.658Z,99034.17
2019-01-23T23:20:11.417Z,99033.26
2019-01-23T23:22:39.790Z,99044.86
2019-01-23T23:25:09.041Z,99044.48
2019-01-23T23:27:39.548Z,99051.22
2019-01-23T23:30:13.853Z,99053.77
2019-01-23T23:32:43.099Z,99055.38
2019-01-23T23:35:12.089Z,99057.45
2019-01-23T23:37:40.434Z,99058.55
2019-01-23T23:40:12.731Z,99055.87
2019-01-23T23:42:41.794Z,99064.14
2019-01-23T23:45:13.900Z,99061.72
2019-01-23T23:47:42.580Z,99068.03
2019-01-23T23:50:13.746Z,99065.64
2019-01-23T23:52:42.099Z,99075.48
2019-01-23T23:55:13.117Z,99078.41
2019-01-23T23:57:41.619Z,99072.52
